createdAt,value
2022-10-16T00:01:25.154Z,16.24
2022-10-16T00:06:27.003Z,16.25
2022-10-16T00:11:31.456Z,16.26
2022-10-16T00:16:33.074Z,16.35
2022-10-16T00:21:34.739Z,16.37
2022-10-16T00:26:37.536Z,16.41
2022-10-16T00:31:38.816Z,16.41
2022-10-16T00:36:40.048Z,16.40
2022-10-16T00:41:41.664Z,16.41
2022-10-16T00:46:43.269Z,16.40
2022-10-16T00:51:48.991Z,16.38
2022-10-16T00:56:51.093Z,16.42
2022-10-16T01:01:53.905Z,16.37
2022-10-16T01:07:13.264Z,16.40
2022-10-16T01:12:38.435Z,16.38
2022-10-16T01:17:55.551Z,16.42
2022-10-16T01:22:59.915Z,16.42
2022-10-16T01:28:04.463Z,16.44
2022-10-16T01:33:20.765Z,16.49
2022-10-16T01:38:36.566Z,16.46
2022-10-16T01:43:44.466Z,16.44
2022-10-16T01:48:46.471Z,16.45
2022-10-16T01:53:58.271Z,16.48
2022-10-16T01:59:10.620Z,16.46
2022-10-16T02:04:49.883Z,16.35
2022-10-16T02:09:51.132Z,16.25
2022-10-16T02:14:52.685Z,16.24
2022-10-16T02:19:57.091Z,16.15
2022-10-16T02:25:18.286Z,16.06
2022-10-16T02:30:35.550Z,16.07
2022-10-16T02:35:38.701Z,16.08
2022-10-16T02:40:39.992Z,16.11
2022-10-16T02:45:41.834Z,16.08
2022-10-16T02:50:43.113Z,16.04
2022-10-16T02:55:44.436Z,16.04
2022-10-16T03:00:45.721Z,16.09
2022-10-16T03:05:46.972Z,16.05
2022-10-16T03:10:48.200Z,16.04
2022-10-16T03:15:49.587Z,16.01
2022-10-16T03:20:50.830Z,16.06
2022-10-16T03:25:52.114Z,16.04
2022-10-16T03:30:53.362Z,16.00
2022-10-16T03:35:55.597Z,15.99
2022-10-16T03:40:56.887Z,15.98
2022-10-16T03:45:58.143Z,16.06
2022-10-16T03:50:59.397Z,16.06
2022-10-16T03:56:01.068Z,16.07
2022-10-16T04:01:02.420Z,16.06
2022-10-16T04:06:03.840Z,16.09
2022-10-16T04:11:05.255Z,16.12
2022-10-16T04:16:06.724Z,16.19
2022-10-16T04:21:08.270Z,16.24
2022-10-16T04:26:11.138Z,16.25
2022-10-16T04:31:12.402Z,16.28
2022-10-16T04:36:14.051Z,16.22
2022-10-16T04:41:15.364Z,16.23
2022-10-16T04:46:16.686Z,16.28
2022-10-16T04:51:19.546Z,16.31
2022-10-16T04:56:21.703Z,16.25
2022-10-16T05:01:22.994Z,16.29
2022-10-16T05:06:24.338Z,16.37
2022-10-16T05:11:25.636Z,16.37
2022-10-16T05:16:26.934Z,16.42
2022-10-16T05:21:28.163Z,16.38
2022-10-16T05:26:29.422Z,16.35
2022-10-16T05:31:30.872Z,16.34
2022-10-16T05:36:32.177Z,16.33
2022-10-16T05:41:33.530Z,16.32
2022-10-16T05:46:34.802Z,16.34
2022-10-16T05:51:36.083Z,16.40
2022-10-16T05:56:37.373Z,16.45
2022-10-16T06:01:38.687Z,16.51
2022-10-16T06:06:40.053Z,16.51
2022-10-16T06:11:41.363Z,16.46
2022-10-16T06:16:42.856Z,16.43
2022-10-16T06:21:44.250Z,16.42
2022-10-16T06:26:45.557Z,16.39
2022-10-16T06:31:46.804Z,16.31
2022-10-16T06:36:48.208Z,16.40
2022-10-16T06:41:49.858Z,16.49
2022-10-16T06:46:52.140Z,16.50
2022-10-16T06:51:53.384Z,16.54
2022-10-16T06:56:55.505Z,16.58
2022-10-16T07:01:56.847Z,16.65
2022-10-16T07:06:58.098Z,16.68
2022-10-16T07:11:59.392Z,16.66
2022-10-16T07:17:00.638Z,16.69
2022-10-16T07:22:02.177Z,16.79
2022-10-16T07:27:03.706Z,16.88
2022-10-16T07:32:05.219Z,16.85
2022-10-16T07:37:06.549Z,16.82
2022-10-16T07:42:08.648Z,16.83
2022-10-16T07:47:10.263Z,16.91
2022-10-16T07:52:11.506Z,16.88
2022-10-16T07:57:12.943Z,16.82
2022-10-16T08:02:14.225Z,17.04
2022-10-16T08:07:15.481Z,17.09
2022-10-16T08:12:16.728Z,16.94
2022-10-16T08:17:18.025Z,16.88
2022-10-16T08:22:19.266Z,16.96
2022-10-16T08:27:20.612Z,17.09
2022-10-16T08:32:25.244Z,17.14
2022-10-16T08:37:33.468Z,17.14
2022-10-16T08:42:34.699Z,17.23
2022-10-16T08:48:01.041Z,17.26
2022-10-16T08:53:05.911Z,17.27
2022-10-16T08:58:27.505Z,17.24
2022-10-16T09:04:05.436Z,17.24
2022-10-16T09:09:14.744Z,17.17
2022-10-16T09:14:37.237Z,16.95
2022-10-16T09:19:47.525Z,17.12
2022-10-16T09:24:49.069Z,17.19
2022-10-16T09:29:50.311Z,17.21
2022-10-16T09:34:55.257Z,17.23
2022-10-16T09:39:56.587Z,17.18
2022-10-16T09:44:58.446Z,17.09
2022-10-16T09:50:05.042Z,17.04
2022-10-16T09:55:18.834Z,17.12
2022-10-16T10:00:21.764Z,17.22
2022-10-16T10:05:25.910Z,17.36
2022-10-16T10:10:30.909Z,17.40
2022-10-16T10:15:36.760Z,17.65
2022-10-16T10:20:39.628Z,18.42
2022-10-16T10:25:57.147Z,19.25
2022-10-16T10:31:13.926Z,20.27
2022-10-16T10:36:38.496Z,20.30
2022-10-16T10:41:47.256Z,20.23
2022-10-16T10:46:57.958Z,20.38
2022-10-16T10:52:21.111Z,21.02
2022-10-16T10:57:44.061Z,21.56
2022-10-16T11:03:07.162Z,26.78
2022-10-16T11:08:33.558Z,31.35
2022-10-16T11:13:44.933Z,33.50
2022-10-16T11:19:24.684Z,34.49
2022-10-16T11:24:36.950Z,37.01
2022-10-16T11:29:48.563Z,37.32
2022-10-16T11:34:59.744Z,34.63
2022-10-16T11:40:17.139Z,37.19
2022-10-16T11:45:33.905Z,32.68
2022-10-16T11:50:44.690Z,28.01
2022-10-16T11:55:47.295Z,24.38
2022-10-16T12:00:58.628Z,23.79
2022-10-16T12:06:20.151Z,27.58
2022-10-16T12:11:24.485Z,35.56
2022-10-16T12:16:25.793Z,34.77
2022-10-16T12:21:31.655Z,36.59
2022-10-16T12:26:40.083Z,33.75
2022-10-16T12:31:54.809Z,33.39
2022-10-16T12:37:11.272Z,38.43
2022-10-16T12:42:27.040Z,39.82
2022-10-16T12:47:31.226Z,39.61
2022-10-16T12:52:40.695Z,34.92
2022-10-16T12:58:10.762Z,34.10
2022-10-16T13:03:24.195Z,33.37
2022-10-16T13:08:42.068Z,30.26
2022-10-16T13:14:21.273Z,31.87
2022-10-16T13:19:34.905Z,28.13
2022-10-16T13:24:54.181Z,25.91
2022-10-16T13:30:02.798Z,24.60
2022-10-16T13:35:04.983Z,24.02
2022-10-16T13:40:19.903Z,23.91
2022-10-16T13:45:23.376Z,24.65
2022-10-16T13:50:24.689Z,24.12
2022-10-16T13:55:25.978Z,23.50
2022-10-16T14:00:33.787Z,22.99
2022-10-16T14:05:35.531Z,22.67
2022-10-16T14:10:36.809Z,22.28
2022-10-16T14:15:38.481Z,21.98
2022-10-16T14:20:40.057Z,21.76
2022-10-16T14:25:41.365Z,21.53
2022-10-16T14:30:55.813Z,21.47
2022-10-16T14:36:06.804Z,21.32
2022-10-16T14:41:09.072Z,21.38
2022-10-16T14:46:16.324Z,21.43
2022-10-16T14:51:19.846Z,21.47
2022-10-16T14:56:26.280Z,21.45
2022-10-16T15:01:27.603Z,21.27
2022-10-16T15:06:28.882Z,21.19
2022-10-16T15:11:33.292Z,21.13
2022-10-16T15:16:34.547Z,21.14
2022-10-16T15:21:35.833Z,21.10
2022-10-16T15:26:37.114Z,21.08
2022-10-16T15:31:38.537Z,21.05
2022-10-16T15:36:40.563Z,20.90
2022-10-16T15:41:42.306Z,20.80
2022-10-16T15:46:43.975Z,20.77
2022-10-16T15:51:47.063Z,20.72
2022-10-16T15:56:48.308Z,20.62
2022-10-16T16:01:49.625Z,20.54
2022-10-16T16:06:50.883Z,20.51
2022-10-16T16:11:53.269Z,20.53
2022-10-16T16:16:55.750Z,20.47
2022-10-16T16:21:57.074Z,20.45
2022-10-16T16:26:58.343Z,20.35
2022-10-16T16:32:00.736Z,20.33
2022-10-16T16:37:02.026Z,20.28
2022-10-16T16:42:04.946Z,20.20
2022-10-16T16:47:06.838Z,20.10
2022-10-16T16:52:08.554Z,20.07
2022-10-16T16:57:09.968Z,19.98
2022-10-16T17:02:11.338Z,19.95
2022-10-16T17:07:12.796Z,19.89
2022-10-16T17:12:14.045Z,19.73
2022-10-16T17:17:15.278Z,19.72
2022-10-16T17:22:16.855Z,19.64
2022-10-16T17:27:19.592Z,19.65
2022-10-16T17:32:21.759Z,19.61
2022-10-16T17:37:23.038Z,19.59
2022-10-16T17:42:24.575Z,19.56
2022-10-16T17:47:26.174Z,19.45
2022-10-16T17:52:27.627Z,19.34
2022-10-16T17:57:29.031Z,19.21
2022-10-16T18:02:30.721Z,19.17
2022-10-16T18:07:32.528Z,19.08
2022-10-16T18:12:33.816Z,19.11
2022-10-16T18:17:38.041Z,18.98
2022-10-16T18:22:39.559Z,18.92
2022-10-16T18:27:40.872Z,18.87
2022-10-16T18:32:42.339Z,18.75
2022-10-16T18:37:46.778Z,18.69
2022-10-16T18:42:50.013Z,18.68
2022-10-16T18:47:51.287Z,18.61
2022-10-16T18:52:52.545Z,18.59
2022-10-16T18:57:55.073Z,18.61
2022-10-16T19:02:56.373Z,18.54
2022-10-16T19:07:58.504Z,18.51
2022-10-16T19:13:00.108Z,18.48
2022-10-16T19:18:01.380Z,18.43
2022-10-16T19:23:03.998Z,18.32
2022-10-16T19:28:08.312Z,18.28
2022-10-16T19:33:09.580Z,18.18
2022-10-16T19:38:10.826Z,18.14
2022-10-16T19:43:12.176Z,18.10
2022-10-16T19:48:13.506Z,18.10
2022-10-16T19:53:14.802Z,18.03
2022-10-16T19:58:16.087Z,18.05
2022-10-16T20:03:17.554Z,17.97
2022-10-16T20:08:18.937Z,17.99
2022-10-16T20:13:21.875Z,17.96
2022-10-16T20:18:23.404Z,17.90
2022-10-16T20:23:24.989Z,17.85
2022-10-16T20:28:26.310Z,17.82
2022-10-16T20:33:27.626Z,17.79
2022-10-16T20:38:29.072Z,17.79
2022-10-16T20:43:30.737Z,17.73
2022-10-16T20:48:32.202Z,17.66
2022-10-16T20:53:34.911Z,17.65
2022-10-16T20:58:40.094Z,17.59
2022-10-16T21:03:42.557Z,17.56
2022-10-16T21:08:43.995Z,17.53
2022-10-16T21:13:45.779Z,17.53
2022-10-16T21:18:47.780Z,17.51
2022-10-16T21:23:50.082Z,17.41
2022-10-16T21:28:57.328Z,17.37
2022-10-16T21:33:59.128Z,17.38
2022-10-16T21:39:02.529Z,17.29
2022-10-16T21:44:05.300Z,17.29
2022-10-16T21:49:10.872Z,17.23
2022-10-16T21:54:15.774Z,17.21
2022-10-16T21:59:17.583Z,17.15
2022-10-16T22:04:18.822Z,17.11
2022-10-16T22:09:20.112Z,17.06
2022-10-16T22:14:21.963Z,17.03
2022-10-16T22:19:23.334Z,17.03
2022-10-16T22:24:24.733Z,17.00
2022-10-16T22:29:26.011Z,16.94
2022-10-16T22:34:29.112Z,16.88
2022-10-16T22:39:30.491Z,16.92
2022-10-16T22:44:31.793Z,16.88
2022-10-16T22:49:33.063Z,16.92
2022-10-16T22:54:34.316Z,16.88
2022-10-16T22:59:35.545Z,16.90
2022-10-16T23:04:36.802Z,16.89
2022-10-16T23:09:38.099Z,16.79
2022-10-16T23:14:39.689Z,16.75
2022-10-16T23:19:40.942Z,16.75
2022-10-16T23:24:42.180Z,16.70
2022-10-16T23:29:43.415Z,16.59
2022-10-16T23:34:46.515Z,16.57
2022-10-16T23:39:47.751Z,16.60
2022-10-16T23:44:49.192Z,16.58
2022-10-16T23:49:50.427Z,16.58
2022-10-16T23:54:51.652Z,16.54
2022-10-16T23:59:52.932Z,16.44
